Time;durP1;ratioP1;P1;durP2;ratioP2;P2;SDS_P1;SDS_P2;PMS_P1;PMS_P2;Temp;Humidity;BMP_temperature;BMP_pressure;BME280_temperature;BME280_humidity;BME280_pressure;Samples;Min_cycle;Max_cycle;Signal;HPM_P1;HPM_P2
2022/12/03 00:01:38;;;;;;;5.13;4.93;;;0.80;99.90;;;;;;5031877;28;20025;-77
2022/12/03 00:04:03;;;;;;;6.90;6.47;;;0.80;99.90;;;;;;5031957;28;20021;-76
2022/12/03 00:06:29;;;;;;;5.55;5.35;;;0.80;99.90;;;;;;5030531;28;20021;-76
2022/12/03 00:08:55;;;;;;;7.90;7.53;;;0.80;99.90;;;;;;5031697;28;20125;-76
2022/12/03 00:11:20;;;;;;;5.35;5.15;;;0.80;99.90;;;;;;5032371;28;20431;-76
2022/12/03 00:13:46;;;;;;;6.63;5.82;;;0.80;99.90;;;;;;5031796;28;20036;-76
2022/12/03 00:16:12;;;;;;;5.30;5.10;;;0.80;99.90;;;;;;5030479;28;20025;-76
2022/12/03 00:18:38;;;;;;;5.10;4.90;;;0.80;99.90;;;;;;5030252;28;20483;-75
2022/12/03 00:21:03;;;;;;;5.72;5.53;;;0.90;99.90;;;;;;5032227;28;20055;-75
2022/12/03 00:23:29;;;;;;;9.23;7.68;;;0.90;99.90;;;;;;5032480;28;20029;-75
2022/12/03 00:25:54;;;;;;;4.47;4.38;;;0.80;99.90;;;;;;5031697;28;20074;-75
2022/12/03 00:28:20;;;;;;;5.80;5.40;;;0.80;99.90;;;;;;5031335;28;20117;-75
2022/12/03 00:30:45;;;;;;;5.57;5.38;;;0.80;99.90;;;;;;5031612;28;20036;-75
2022/12/03 00:33:11;;;;;;;12.15;11.05;;;0.80;99.90;;;;;;5031900;28;20038;-75
2022/12/03 00:35:36;;;;;;;5.25;5.05;;;0.90;99.90;;;;;;5030347;28;20075;-75
2022/12/03 00:38:02;;;;;;;5.07;4.88;;;0.90;99.90;;;;;;5031115;28;20083;-75
2022/12/03 00:40:27;;;;;;;5.55;5.35;;;0.90;99.90;;;;;;5031481;28;20038;-76
2022/12/03 00:42:53;;;;;;;5.28;5.07;;;0.90;99.90;;;;;;5031378;28;20104;-76
2022/12/03 00:45:19;;;;;;;5.60;5.40;;;1.00;99.90;;;;;;5030250;28;20030;-76
2022/12/03 00:47:44;;;;;;;5.55;5.35;;;0.90;99.90;;;;;;5031086;28;20025;-76
2022/12/03 00:50:10;;;;;;;5.15;4.95;;;1.00;99.90;;;;;;5031484;28;20025;-76
2022/12/03 00:52:36;;;;;;;5.53;5.32;;;1.00;99.90;;;;;;5031367;28;20312;-75
2022/12/03 00:55:02;;;;;;;8.90;8.40;;;1.00;99.90;;;;;;5030058;28;20395;-76
2022/12/03 00:57:28;;;;;;;6.43;6.13;;;0.90;99.90;;;;;;5030969;28;20056;-75
2022/12/03 00:59:53;;;;;;;6.78;6.57;;;0.90;99.90;;;;;;5033229;28;20017;-75
2022/12/03 01:02:19;;;;;;;6.68;6.38;;;0.90;99.90;;;;;;5035240;28;20034;-76
2022/12/03 01:04:44;;;;;;;6.05;5.85;;;0.90;99.90;;;;;;5035363;28;20026;-75
2022/12/03 01:07:10;;;;;;;8.40;7.78;;;0.90;99.90;;;;;;5021589;28;20022;-76
2022/12/03 01:09:35;;;;;;;17.05;11.23;;;0.90;99.90;;;;;;5035201;28;20083;-76
2022/12/03 01:12:01;;;;;;;4.80;4.63;;;0.80;99.90;;;;;;5019086;28;20546;-76
2022/12/03 01:14:26;;;;;;;7.22;6.68;;;0.90;99.90;;;;;;5015365;28;20448;-76
2022/12/03 01:16:52;;;;;;;5.22;5.03;;;0.90;99.90;;;;;;5028469;28;20030;-76
2022/12/03 01:19:18;;;;;;;4.57;4.47;;;0.90;99.90;;;;;;5015257;28;20480;-76
2022/12/03 01:21:49;;;;;;;4.10;4.00;;;1.00;99.90;;;;;;5015112;28;20045;-75
2022/12/03 01:24:15;;;;;;;13.02;11.98;;;0.90;99.90;;;;;;5013945;28;20037;-76
2022/12/03 01:26:41;;;;;;;4.68;4.57;;;0.90;99.90;;;;;;5015007;28;20018;-76
2022/12/03 01:29:06;;;;;;;5.05;4.85;;;0.90;99.90;;;;;;5014916;28;20033;-75
2022/12/03 01:34:16;;;;;;;5.57;5.38;;;0.90;99.90;;;;;;5015348;28;20041;-75
2022/12/03 01:36:42;;;;;;;7.35;7.03;;;1.00;99.90;;;;;;5014696;28;20029;-76
2022/12/03 01:39:07;;;;;;;6.80;6.40;;;1.00;99.90;;;;;;5014627;28;20041;-75
2022/12/03 01:41:35;;;;;;;6.47;6.15;;;1.00;99.90;;;;;;5013696;28;20112;-75
2022/12/03 01:44:14;;;;;;;5.35;5.15;;;1.00;99.90;;;;;;5014917;28;20029;-75
2022/12/03 01:46:40;;;;;;;6.50;6.15;;;1.00;99.90;;;;;;5013375;28;20317;-75
2022/12/03 01:49:13;;;;;;;5.07;4.88;;;1.00;99.90;;;;;;5014400;28;20400;-75
2022/12/03 01:51:39;;;;;;;4.53;4.43;;;1.00;99.90;;;;;;5014651;28;20038;-75
2022/12/03 01:54:05;;;;;;;6.50;6.28;;;1.00;99.90;;;;;;5015965;28;20499;-75
2022/12/03 01:56:30;;;;;;;4.60;4.50;;;1.00;99.90;;;;;;5034297;28;20079;-75
2022/12/03 01:58:56;;;;;;;4.68;4.57;;;0.90;99.90;;;;;;5033925;28;20018;-75
2022/12/03 02:01:21;;;;;;;5.57;5.18;;;1.00;99.90;;;;;;5034248;28;20104;-76
2022/12/03 02:03:47;;;;;;;4.68;4.47;;;1.00;99.90;;;;;;5032760;28;20029;-75
2022/12/03 02:06:19;;;;;;;5.30;5.10;;;1.00;99.90;;;;;;5034196;28;20030;-75
2022/12/03 02:08:45;;;;;;;5.13;4.93;;;1.00;99.90;;;;;;5032474;28;20052;-75
2022/12/03 02:11:31;;;;;;;3.97;3.88;;;1.10;99.90;;;;;;5032422;28;20031;-75
2022/12/03 02:14:07;;;;;;;4.18;4.07;;;1.10;99.90;;;;;;5033907;28;20025;-76
2022/12/03 02:16:35;;;;;;;4.70;4.60;;;1.10;99.90;;;;;;5033994;28;20047;-75
2022/12/03 02:19:01;;;;;;;4.72;4.60;;;1.00;99.90;;;;;;5033637;28;20487;-75
2022/12/03 02:21:34;;;;;;;5.13;4.93;;;0.90;99.90;;;;;;5033957;28;20025;-75
2022/12/03 02:24:21;;;;;;;5.47;5.28;;;0.70;99.90;;;;;;5034043;28;20025;-76
2022/12/03 02:26:47;;;;;;;6.30;6.00;;;0.70;99.90;;;;;;5033502;28;20025;-76
2022/12/03 02:29:13;;;;;;;4.70;4.55;;;0.80;99.90;;;;;;5032396;28;20029;-75
2022/12/03 02:31:38;;;;;;;7.25;6.60;;;0.90;99.90;;;;;;5032340;28;20554;-76
2022/12/03 02:34:07;;;;;;;5.25;5.05;;;0.90;99.90;;;;;;5032466;28;20032;-76
2022/12/03 02:36:34;;;;;;;4.10;4.00;;;0.90;99.90;;;;;;5016892;28;20030;-75
2022/12/03 02:39:01;;;;;;;6.10;5.90;;;1.00;99.90;;;;;;5013434;28;20125;-76
2022/12/03 02:44:11;;;;;;;4.53;4.43;;;1.10;99.90;;;;;;5014034;28;20096;-75
2022/12/03 02:46:37;;;;;;;6.47;6.07;;;1.10;99.90;;;;;;5013435;28;20053;-75
2022/12/03 02:49:04;;;;;;;4.15;4.05;;;1.10;99.90;;;;;;5012134;28;20042;-75
2022/12/03 02:51:31;;;;;;;4.40;4.30;;;1.10;99.90;;;;;;5018679;28;20399;-76
2022/12/03 02:53:57;;;;;;;3.70;3.60;;;1.00;99.90;;;;;;5020809;28;20053;-75
2022/12/03 02:56:27;;;;;;;6.53;6.13;;;1.00;99.90;;;;;;5033390;28;20025;-75
2022/12/03 02:58:57;;;;;;;6.43;6.13;;;0.90;99.90;;;;;;5032892;28;20068;-75
2022/12/03 03:01:22;;;;;;;4.28;4.18;;;0.90;99.90;;;;;;5031891;28;20025;-75
2022/12/03 03:03:49;;;;;;;4.95;4.75;;;0.90;99.90;;;;;;5031806;28;20494;-75
2022/12/03 03:06:17;;;;;;;4.07;3.97;;;0.90;99.90;;;;;;5023626;28;20057;-75
2022/12/03 03:08:43;;;;;;;4.78;4.65;;;0.80;99.90;;;;;;5012936;28;20068;-75
2022/12/03 03:11:09;;;;;;;7.28;5.53;;;0.70;99.90;;;;;;5013143;28;20062;-74
2022/12/03 03:13:36;;;;;;;6.85;6.38;;;0.90;99.90;;;;;;5011805;28;20034;-75
2022/12/03 03:16:03;;;;;;;4.65;4.45;;;0.90;99.90;;;;;;5013116;28;20025;-76
2022/12/03 03:18:29;;;;;;;4.55;4.45;;;0.90;99.90;;;;;;5012697;28;20036;-76
2022/12/03 03:20:54;;;;;;;5.15;4.95;;;1.00;99.90;;;;;;5013010;28;20022;-76
2022/12/03 03:23:22;;;;;;;8.77;8.15;;;1.00;99.90;;;;;;5012065;28;20030;-76
2022/12/03 03:26:03;;;;;;;5.72;5.35;;;0.90;99.90;;;;;;5021708;28;20029;-75
2022/12/03 03:28:30;;;;;;;6.68;6.38;;;0.80;99.90;;;;;;5019054;28;20152;-75
2022/12/03 03:30:57;;;;;;;4.50;4.40;;;0.70;99.90;;;;;;5021476;28;20450;-75
2022/12/03 03:33:23;;;;;;;5.82;5.63;;;0.80;99.90;;;;;;5011355;28;20041;-76
2022/12/03 03:35:49;;;;;;;4.55;4.45;;;1.00;99.90;;;;;;5012985;28;20440;-77
2022/12/03 03:38:18;;;;;;;5.93;5.68;;;1.00;99.90;;;;;;5010915;28;20180;-77
2022/12/03 03:40:44;;;;;;;4.30;4.20;;;1.10;99.90;;;;;;5011333;28;20425;-76
2022/12/03 03:43:11;;;;;;;4.47;4.38;;;1.10;99.90;;;;;;5011344;28;20115;-76
2022/12/03 03:45:36;;;;;;;4.93;4.72;;;1.00;99.90;;;;;;5013055;28;20022;-76
2022/12/03 03:48:02;;;;;;;7.22;6.82;;;1.00;99.90;;;;;;5012137;28;20381;-76
2022/12/03 03:50:30;;;;;;;4.10;4.00;;;1.00;99.90;;;;;;5013015;28;20034;-75
2022/12/03 03:52:56;;;;;;;5.93;5.63;;;1.00;99.90;;;;;;5011132;28;20029;-76
2022/12/03 03:55:22;;;;;;;4.30;4.20;;;0.80;99.90;;;;;;5023204;28;20430;-76
2022/12/03 03:57:47;;;;;;;4.38;4.28;;;0.90;99.90;;;;;;5031735;28;20060;-77
2022/12/03 04:00:13;;;;;;;6.50;6.20;;;1.00;99.90;;;;;;5031965;28;20036;-77
2022/12/03 04:02:39;;;;;;;4.72;4.53;;;0.90;99.90;;;;;;5030667;28;20083;-76
2022/12/03 04:05:06;;;;;;;5.25;5.05;;;1.00;99.90;;;;;;5032034;28;20506;-76
2022/12/03 04:07:32;;;;;;;4.30;4.20;;;1.00;99.90;;;;;;5031556;28;20052;-75
2022/12/03 04:09:57;;;;;;;6.35;6.05;;;1.00;99.90;;;;;;5031924;28;20053;-76
2022/12/03 04:15:08;;;;;;;5.18;4.97;;;1.10;99.90;;;;;;5031796;28;20079;-75
2022/12/03 04:17:33;;;;;;;4.93;4.72;;;1.00;99.90;;;;;;5030210;28;20032;-76
2022/12/03 04:19:59;;;;;;;8.13;7.50;;;1.00;99.90;;;;;;5031734;28;20100;-75
2022/12/03 04:22:39;;;;;;;5.57;5.20;;;1.00;99.90;;;;;;5032239;28;20113;-75
2022/12/03 04:30:34;;;;;;;5.22;5.03;;;1.10;99.90;;;;;;5031670;28;20517;-74
2022/12/03 04:35:44;;;;;;;4.80;4.60;;;1.20;99.90;;;;;;5031580;28;20107;-74
2022/12/03 04:38:14;;;;;;;4.32;4.22;;;1.20;99.90;;;;;;5031122;28;20088;-74
2022/12/03 04:40:59;;;;;;;4.63;4.53;;;1.20;99.90;;;;;;5031526;28;20021;-75
2022/12/03 04:43:25;;;;;;;10.25;5.60;;;1.20;99.90;;;;;;5031554;28;20022;-76
2022/12/03 04:45:51;;;;;;;5.93;5.72;;;1.20;99.90;;;;;;5030252;28;20037;-74
2022/12/03 04:48:16;;;;;;;5.13;4.93;;;1.20;99.90;;;;;;5031118;28;20586;-75
2022/12/03 04:50:42;;;;;;;5.07;4.88;;;1.20;99.90;;;;;;5031378;28;20530;-75
2022/12/03 04:53:07;;;;;;;5.13;4.93;;;1.20;99.90;;;;;;5031311;28;20173;-75
2022/12/03 04:55:33;;;;;;;4.15;4.05;;;1.20;99.90;;;;;;5031166;28;20479;-74
2022/12/03 04:57:59;;;;;;;6.63;6.43;;;1.20;99.90;;;;;;5031066;28;20029;-74
2022/12/03 05:00:24;;;;;;;4.10;4.00;;;1.20;99.90;;;;;;5031288;28;20032;-74
2022/12/03 05:02:50;;;;;;;4.57;4.47;;;1.20;99.90;;;;;;5031202;28;20398;-74
2022/12/03 05:05:16;;;;;;;4.03;3.92;;;1.20;99.90;;;;;;5031298;28;20025;-75
2022/12/03 05:07:41;;;;;;;5.30;5.10;;;1.20;99.90;;;;;;5030981;28;20029;-75
2022/12/03 05:10:07;;;;;;;4.32;4.22;;;1.20;99.90;;;;;;5031192;28;20028;-75
2022/12/03 05:12:33;;;;;;;4.35;4.25;;;1.20;99.90;;;;;;5031112;28;20484;-75
2022/12/03 05:14:59;;;;;;;8.23;7.65;;;1.20;99.90;;;;;;5029946;28;20072;-75
2022/12/03 05:17:24;;;;;;;4.20;4.10;;;1.10;99.90;;;;;;5029466;28;20049;-75
2022/12/03 05:22:34;;;;;;;3.95;3.85;;;1.20;99.90;;;;;;5031362;28;20032;-75
2022/12/03 05:24:59;;;;;;;5.00;4.80;;;1.20;99.90;;;;;;5031185;28;20029;-75
2022/12/03 05:27:25;;;;;;;4.72;4.60;;;1.20;99.90;;;;;;5029534;28;20460;-75
2022/12/03 05:29:51;;;;;;;5.20;5.00;;;1.20;99.90;;;;;;5030959;28;20431;-75
2022/12/03 05:32:17;;;;;;;4.13;4.03;;;1.20;99.90;;;;;;5031068;28;20060;-75
2022/12/03 05:34:43;;;;;;;4.68;4.57;;;1.10;99.90;;;;;;5031026;28;20723;-76
2022/12/03 05:37:08;;;;;;;4.07;3.97;;;1.20;99.90;;;;;;5029548;28;20507;-76
2022/12/03 05:39:34;;;;;;;4.45;4.35;;;1.20;99.90;;;;;;5030931;28;20032;-75
2022/12/03 05:44:43;;;;;;;4.53;4.43;;;1.10;99.90;;;;;;5030929;28;20059;-74
2022/12/03 05:47:09;;;;;;;4.65;4.53;;;1.20;99.90;;;;;;5034652;28;20109;-74
2022/12/03 05:49:35;;;;;;;4.13;4.03;;;1.20;99.90;;;;;;5033170;28;20441;-75
2022/12/03 05:52:00;;;;;;;4.32;4.22;;;1.20;99.90;;;;;;5022900;28;20549;-76
2022/12/03 05:54:26;;;;;;;4.30;4.20;;;1.20;99.90;;;;;;5018815;28;20028;-75
2022/12/03 05:56:51;;;;;;;4.22;4.13;;;1.20;99.90;;;;;;5034137;28;20037;-76
2022/12/03 05:59:17;;;;;;;5.15;4.95;;;1.20;99.90;;;;;;5034278;28;20429;-76
2022/12/03 06:01:42;;;;;;;4.57;4.40;;;1.20;99.90;;;;;;5033191;28;20387;-76
2022/12/03 06:04:08;;;;;;;4.43;4.32;;;1.20;99.90;;;;;;5033849;28;20034;-75
2022/12/03 06:06:33;;;;;;;4.22;4.13;;;1.20;99.90;;;;;;5034086;28;20030;-76
2022/12/03 06:08:59;;;;;;;4.43;4.32;;;1.20;99.90;;;;;;5030481;28;20037;-76
2022/12/03 06:11:24;;;;;;;3.92;3.83;;;1.20;99.90;;;;;;5023690;28;20030;-76
2022/12/03 06:13:50;;;;;;;4.40;4.30;;;1.20;99.90;;;;;;5032822;28;20042;-75
2022/12/03 06:16:15;;;;;;;4.07;3.97;;;1.20;99.90;;;;;;5023626;28;20030;-76
2022/12/03 06:18:41;;;;;;;5.07;4.88;;;1.20;99.90;;;;;;5027314;28;20034;-76
2022/12/03 06:21:06;;;;;;;5.20;5.00;;;1.20;99.90;;;;;;5024576;28;20128;-75
2022/12/03 06:23:32;;;;;;;4.40;4.20;;;1.20;99.90;;;;;;5032552;28;20087;-76
2022/12/03 06:25:57;;;;;;;4.65;4.55;;;1.20;99.90;;;;;;5032175;28;20026;-75
2022/12/03 06:28:23;;;;;;;4.28;4.15;;;1.20;99.90;;;;;;5033581;28;20030;-75
2022/12/03 06:30:48;;;;;;;3.83;3.72;;;1.20;99.90;;;;;;5023963;28;20034;-75
2022/12/03 06:33:14;;;;;;;4.97;4.78;;;1.20;99.90;;;;;;5017278;28;20029;-76
2022/12/03 06:35:40;;;;;;;5.57;5.28;;;1.20;99.90;;;;;;5032475;28;20106;-75
2022/12/03 06:38:05;;;;;;;8.50;8.07;;;1.20;99.90;;;;;;5019914;28;20034;-76
2022/12/03 06:40:31;;;;;;;3.85;3.75;;;1.20;99.90;;;;;;5024437;28;20033;-75
2022/12/03 06:42:56;;;;;;;3.78;3.67;;;1.10;99.90;;;;;;5027394;28;20025;-76
2022/12/03 06:45:22;;;;;;;4.10;4.00;;;1.20;99.90;;;;;;5022458;28;20475;-76
2022/12/03 06:47:47;;;;;;;4.60;4.47;;;1.20;99.90;;;;;;5031958;28;20395;-76
2022/12/03 06:50:13;;;;;;;4.38;4.28;;;1.20;99.90;;;;;;5024209;28;20499;-76
2022/12/03 06:52:38;;;;;;;5.93;5.68;;;1.20;99.90;;;;;;5026835;28;20056;-76
2022/12/03 06:55:05;;;;;;;4.10;4.00;;;1.20;99.90;;;;;;5013727;28;20026;-76
2022/12/03 06:57:30;;;;;;;4.05;3.95;;;1.20;99.90;;;;;;5026404;28;20026;-76
2022/12/03 06:59:56;;;;;;;5.00;4.80;;;1.20;99.90;;;;;;5023159;28;20439;-75
2022/12/03 07:02:21;;;;;;;3.97;3.88;;;1.20;99.90;;;;;;5029723;28;20438;-76
2022/12/03 07:04:47;;;;;;;3.30;3.20;;;1.30;99.90;;;;;;5022255;28;20064;-75
2022/12/03 07:07:13;;;;;;;3.78;3.67;;;1.20;99.90;;;;;;5019662;28;20021;-75
2022/12/03 07:09:38;;;;;;;3.65;3.55;;;1.20;99.90;;;;;;5022971;28;20539;-76
2022/12/03 07:12:04;;;;;;;4.35;4.25;;;1.20;99.90;;;;;;5013247;28;20113;-75
2022/12/03 07:14:30;;;;;;;3.88;3.78;;;1.20;99.90;;;;;;5013273;28;20034;-75
2022/12/03 07:16:55;;;;;;;4.85;4.65;;;1.20;99.90;;;;;;5013227;28;20022;-76
2022/12/03 07:19:21;;;;;;;3.40;3.30;;;1.20;99.90;;;;;;5022012;28;20033;-76
2022/12/03 07:21:46;;;;;;;5.50;5.28;;;1.30;99.90;;;;;;5031131;28;20030;-76
2022/12/03 07:24:12;;;;;;;5.10;4.90;;;1.20;99.90;;;;;;5013779;28;20037;-76
2022/12/03 07:26:37;;;;;;;3.65;3.55;;;1.20;99.90;;;;;;5013527;28;20052;-75
2022/12/03 07:29:03;;;;;;;3.30;3.20;;;1.30;99.90;;;;;;5011820;28;20033;-76
2022/12/03 07:31:29;;;;;;;4.78;4.57;;;1.30;99.90;;;;;;5028082;28;20419;-75
2022/12/03 07:33:54;;;;;;;5.00;4.78;;;1.30;99.90;;;;;;5024261;28;20034;-75
2022/12/03 07:36:20;;;;;;;4.40;4.30;;;1.30;99.90;;;;;;5014563;28;20096;-75
2022/12/03 07:38:45;;;;;;;3.65;3.55;;;1.30;99.90;;;;;;5030873;28;20029;-75
2022/12/03 07:41:11;;;;;;;3.58;3.47;;;1.20;99.90;;;;;;5017608;28;20025;-74
2022/12/03 07:43:37;;;;;;;3.67;3.58;;;1.40;99.90;;;;;;5011826;28;20109;-75
2022/12/03 07:46:02;;;;;;;4.78;4.57;;;1.30;99.90;;;;;;5011391;28;20026;-74
2022/12/03 07:48:28;;;;;;;7.78;7.40;;;1.30;99.90;;;;;;5020600;28;20398;-75
2022/12/03 07:50:53;;;;;;;3.75;3.65;;;1.30;99.90;;;;;;5017844;28;20034;-74
2022/12/03 07:53:19;;;;;;;3.97;3.88;;;1.30;99.90;;;;;;5012703;28;20106;-75
2022/12/03 07:55:44;;;;;;;4.13;4.03;;;1.40;99.90;;;;;;5027327;28;20053;-75
2022/12/03 07:58:10;;;;;;;5.93;5.63;;;1.50;99.90;;;;;;5022564;28;20026;-75
2022/12/03 08:00:35;;;;;;;3.13;3.03;;;1.40;99.90;;;;;;5014078;28;20026;-75
2022/12/03 08:03:01;;;;;;;2.97;2.88;;;1.40;99.90;;;;;;5032023;28;20360;-75
2022/12/03 08:05:28;;;;;;;2.92;2.83;;;1.40;99.90;;;;;;5032571;28;20028;-78
2022/12/03 08:07:54;;;;;;;5.95;5.75;;;1.50;99.90;;;;;;5023721;28;20108;-75
2022/12/03 08:10:20;;;;;;;3.45;3.35;;;1.40;99.90;;;;;;5025290;28;20117;-75
2022/12/03 08:12:46;;;;;;;2.83;2.72;;;1.40;99.90;;;;;;5020290;28;20041;-76
2022/12/03 08:15:14;;;;;;;3.58;3.47;;;1.50;99.90;;;;;;5017109;28;20039;-73
2022/12/03 08:17:41;;;;;;;3.63;3.53;;;1.50;99.90;;;;;;5011221;28;20108;-75
2022/12/03 08:20:16;;;;;;;3.63;3.53;;;1.50;99.90;;;;;;5011892;28;20018;-75
2022/12/03 08:22:47;;;;;;;3.90;3.80;;;1.50;99.90;;;;;;5012022;28;20033;-77
2022/12/03 08:25:23;;;;;;;3.03;2.92;;;1.50;99.90;;;;;;5029417;28;20025;-77
2022/12/03 08:27:51;;;;;;;3.08;2.97;;;1.50;99.90;;;;;;5021699;28;20153;-77
2022/12/03 08:30:17;;;;;;;3.20;3.10;;;1.50;99.90;;;;;;5029769;28;20499;-76
2022/12/03 08:32:43;;;;;;;3.22;3.13;;;1.60;99.90;;;;;;5018617;28;20113;-76
2022/12/03 08:35:30;;;;;;;3.70;3.60;;;1.50;99.90;;;;;;5024988;28;20318;-76
2022/12/03 08:38:08;;;;;;;;;;;1.60;99.90;;;;;;5040017;28;20029;-76
2022/12/03 08:40:40;;;;;;;2.72;2.63;;;1.50;99.90;;;;;;5021763;28;20306;-77
2022/12/03 08:43:23;;;;;;;4.32;4.22;;;1.60;99.90;;;;;;5027668;28;20507;-75
2022/12/03 08:45:54;;;;;;;3.30;3.20;;;1.60;99.90;;;;;;5011918;28;20022;-75
2022/12/03 08:48:36;;;;;;;3.60;3.50;;;1.60;99.90;;;;;;5033169;28;20029;-76
2022/12/03 08:51:22;;;;;;;3.58;3.47;;;1.60;99.90;;;;;;5028049;28;20595;-76
2022/12/03 08:54:13;;;;;;;3.40;3.30;;;1.60;99.90;;;;;;5010554;28;20109;-77
2022/12/03 08:56:40;;;;;;;3.53;3.42;;;1.70;99.90;;;;;;5019364;28;20034;-76
2022/12/03 08:59:24;;;;;;;3.35;3.25;;;1.70;99.90;;;;;;5015221;28;20473;-76
2022/12/03 09:01:52;;;;;;;3.40;3.30;;;1.70;99.90;;;;;;5023479;28;20037;-76
2022/12/03 09:04:28;;;;;;;3.10;3.00;;;1.70;99.90;;;;;;5018155;28;20072;-76
2022/12/03 09:06:55;;;;;;;3.15;3.05;;;1.70;99.90;;;;;;5017383;28;20018;-77
2022/12/03 09:09:21;;;;;;;3.42;3.33;;;1.80;99.90;;;;;;5024476;28;20037;-77
2022/12/03 09:11:47;;;;;;;3.33;3.22;;;1.80;99.90;;;;;;5024859;28;20097;-77
2022/12/03 09:14:13;;;;;;;3.85;3.75;;;1.90;99.90;;;;;;5018492;28;20029;-76
2022/12/03 09:16:39;;;;;;;7.03;6.50;;;1.90;99.90;;;;;;5017679;28;20033;-76
2022/12/03 09:19:05;;;;;;;3.00;2.90;;;1.90;99.90;;;;;;5022974;28;20057;-76
2022/12/03 09:21:31;;;;;;;2.92;2.83;;;1.80;99.90;;;;;;5027337;28;20029;-76
2022/12/03 09:23:57;;;;;;;2.65;2.55;;;1.80;99.90;;;;;;5013886;28;20018;-76
2022/12/03 09:26:22;;;;;;;3.22;3.13;;;1.80;99.90;;;;;;5015091;28;20037;-75
2022/12/03 09:28:48;;;;;;;3.17;3.08;;;1.90;99.90;;;;;;5014356;28;20399;-75
2022/12/03 09:31:15;;;;;;;3.13;3.03;;;1.90;99.90;;;;;;5028277;28;20040;-76
2022/12/03 09:33:41;;;;;;;4.20;4.07;;;1.90;99.90;;;;;;5021681;28;20491;-75
2022/12/03 09:36:06;;;;;;;2.85;2.75;;;1.90;99.90;;;;;;5034716;28;20029;-75
2022/12/03 09:38:32;;;;;;;5.90;5.55;;;1.90;99.90;;;;;;5033797;28;20039;-75
2022/12/03 09:40:58;;;;;;;4.60;4.43;;;1.90;99.90;;;;;;5021048;28;20048;-75
2022/12/03 09:43:26;;;;;;;3.15;3.05;;;1.90;99.90;;;;;;5021752;28;20509;-75
2022/12/03 09:45:52;;;;;;;3.85;3.65;;;1.90;99.90;;;;;;5019320;28;20394;-75
2022/12/03 09:48:19;;;;;;;3.25;3.15;;;2.00;99.90;;;;;;5021341;28;20033;-77
2022/12/03 09:50:45;;;;;;;2.95;2.85;;;2.00;99.90;;;;;;5018821;28;20032;-75
2022/12/03 09:53:17;;;;;;;3.42;3.33;;;2.00;99.90;;;;;;5023704;28;20026;-77
2022/12/03 09:55:44;;;;;;;5.72;5.32;;;1.90;99.90;;;;;;5021605;28;20033;-76
2022/12/03 09:58:12;;;;;;;3.38;3.28;;;2.00;99.90;;;;;;5033043;28;20179;-77
2022/12/03 10:00:38;;;;;;;3.10;3.00;;;1.90;99.90;;;;;;5019570;28;20026;-77
2022/12/03 10:03:05;;;;;;;3.53;3.42;;;2.00;99.90;;;;;;5023546;28;20094;-76
2022/12/03 10:05:32;;;;;;;3.00;2.90;;;2.00;99.90;;;;;;5034520;28;20033;-77
2022/12/03 10:08:05;;;;;;;3.15;3.05;;;2.00;99.90;;;;;;5025437;28;20041;-77
2022/12/03 10:10:31;;;;;;;3.33;3.22;;;2.10;99.90;;;;;;5026345;28;20391;-76
2022/12/03 10:12:57;;;;;;;2.95;2.85;;;2.10;99.90;;;;;;5024605;28;20025;-76
2022/12/03 10:15:23;;;;;;;2.83;2.72;;;2.20;99.90;;;;;;5019812;28;20158;-76
2022/12/03 10:17:51;;;;;;;2.78;2.67;;;2.10;99.90;;;;;;5022933;28;20060;-77
2022/12/03 10:20:18;;;;;;;3.15;3.05;;;2.20;99.90;;;;;;5027879;28;20105;-76
2022/12/03 10:22:47;;;;;;;3.35;3.25;;;2.10;99.90;;;;;;5024157;28;20033;-77
2022/12/03 10:25:16;;;;;;;5.30;5.10;;;2.10;99.90;;;;;;5019686;28;20025;-76
2022/12/03 10:27:41;;;;;;;3.20;3.10;;;2.20;99.90;;;;;;5021964;28;20025;-77
2022/12/03 10:30:19;;;;;;;3.28;3.17;;;2.30;99.90;;;;;;5027230;28;20018;-77
2022/12/03 10:32:48;;;;;;;3.65;3.55;;;2.40;99.90;;;;;;5024327;28;20017;-77
2022/12/03 10:35:21;;;;;;;10.85;10.15;;;2.40;99.90;;;;;;5020240;28;20549;-77
2022/12/03 10:37:58;;;;;;;2.92;2.83;;;2.50;99.90;;;;;;5019553;28;20029;-77
2022/12/03 10:40:27;;;;;;;3.40;3.30;;;2.50;99.90;;;;;;5022441;28;20028;-77
2022/12/03 10:43:17;;;;;;;3.20;3.10;;;2.60;99.90;;;;;;5031105;28;20060;-76
2022/12/03 10:45:46;;;;;;;3.22;3.13;;;2.60;99.90;;;;;;5025907;28;20022;-76
2022/12/03 10:48:24;;;;;;;3.58;3.47;;;2.70;99.90;;;;;;5019149;28;20026;-76
2022/12/03 10:51:20;;;;;;;3.08;2.97;;;2.70;99.90;;;;;;5020712;28;20087;-76
2022/12/03 10:53:46;;;;;;;3.15;3.05;;;2.60;99.90;;;;;;5023078;28;20026;-77
2022/12/03 10:56:33;;;;;;;2.80;2.70;;;2.50;99.90;;;;;;5018124;28;20035;-77
2022/12/03 10:58:59;;;;;;;2.92;2.83;;;2.50;99.90;;;;;;5018655;28;20033;-77
2022/12/03 11:01:25;;;;;;;3.38;3.28;;;2.60;99.90;;;;;;5021196;28;20017;-77
2022/12/03 11:03:52;;;;;;;3.03;2.92;;;2.50;99.90;;;;;;5033386;28;20030;-77
2022/12/03 11:06:20;;;;;;;3.45;3.35;;;2.60;99.90;;;;;;5032573;28;20021;-77
2022/12/03 11:08:52;;;;;;;3.03;2.92;;;2.60;99.90;;;;;;5020357;28;20030;-77
2022/12/03 11:11:22;;;;;;;3.40;3.30;;;2.60;99.90;;;;;;5024902;28;20022;-77
2022/12/03 11:14:04;;;;;;;3.10;3.00;;;2.70;99.90;;;;;;5027923;28;20087;-77
2022/12/03 11:16:39;;;;;;;2.58;2.47;;;2.60;99.90;;;;;;5025033;28;20053;-77
2022/12/03 11:19:11;;;;;;;3.08;2.97;;;2.50;99.90;;;;;;5027683;28;20021;-77
2022/12/03 11:22:03;;;;;;;2.83;2.72;;;2.50;99.90;;;;;;5027618;28;20021;-77
2022/12/03 11:24:30;;;;;;;4.70;4.47;;;2.70;99.90;;;;;;5024822;28;20067;-77
2022/12/03 11:26:55;;;;;;;3.60;3.40;;;2.60;99.90;;;;;;5020650;28;20029;-76
2022/12/03 11:29:48;;;;;;;3.10;3.00;;;2.50;99.90;;;;;;5022789;28;20030;-77
2022/12/03 11:32:42;;;;;;;4.28;4.00;;;2.60;99.90;;;;;;5022058;28;20108;-77
2022/12/03 11:35:25;;;;;;;2.80;2.70;;;2.60;99.90;;;;;;5030464;28;20025;-77
2022/12/03 11:37:51;;;;;;;2.63;2.53;;;2.60;99.90;;;;;;5018906;28;20065;-77
2022/12/03 11:40:16;;;;;;;2.75;2.65;;;2.60;99.90;;;;;;5031442;28;20075;-77
2022/12/03 11:42:42;;;;;;;2.60;2.50;;;2.40;99.90;;;;;;5017377;28;20022;-77
2022/12/03 11:45:14;;;;;;;2.83;2.72;;;2.50;99.90;;;;;;5025287;28;20029;-77
2022/12/03 11:47:43;;;;;;;4.50;4.30;;;2.60;99.90;;;;;;5025240;28;20022;-77
2022/12/03 11:50:22;;;;;;;3.33;3.22;;;2.60;99.90;;;;;;5021997;28;20104;-77
2022/12/03 11:52:54;;;;;;;2.83;2.72;;;2.50;99.90;;;;;;5033764;28;20022;-77
2022/12/03 11:55:27;;;;;;;2.92;2.83;;;2.40;99.90;;;;;;5033693;28;20026;-76
2022/12/03 11:58:15;;;;;;;3.92;3.83;;;2.40;99.90;;;;;;5033229;28;20112;-77
2022/12/03 12:00:56;;;;;;;2.40;2.30;;;2.40;99.90;;;;;;5018527;28;20029;-77
2022/12/03 12:03:23;;;;;;;2.50;2.40;;;2.30;99.90;;;;;;5040109;28;20040;-76
2022/12/03 12:05:59;;;;;;;2.90;2.80;;;2.30;99.90;;;;;;5030075;28;20026;-77
2022/12/03 12:08:25;;;;;;;2.92;2.83;;;2.20;99.90;;;;;;5018283;28;20036;-76
2022/12/03 12:10:50;;;;;;;2.67;2.58;;;2.20;99.90;;;;;;5032498;28;20030;-77
2022/12/03 12:13:46;;;;;;;2.47;2.38;;;2.20;99.90;;;;;;5032372;28;20040;-76
2022/12/03 12:16:11;;;;;;;2.30;2.22;;;2.20;99.90;;;;;;5028148;28;20048;-78
2022/12/03 12:18:47;;;;;;;2.30;2.20;;;2.20;99.90;;;;;;5023549;28;20742;-78
2022/12/03 12:21:37;;;;;;;2.60;2.50;;;2.20;99.90;;;;;;5031223;28;20024;-77
2022/12/03 12:24:46;;;;;;;2.33;2.22;;;2.10;99.90;;;;;;5028109;28;20028;-78
2022/12/03 12:27:37;;;;;;;2.80;2.70;;;2.10;99.90;;;;;;5031910;28;20052;-77
2022/12/03 12:30:04;;;;;;;2.72;2.63;;;2.20;99.90;;;;;;5030337;28;20575;-77
2022/12/03 12:32:32;;;;;;;2.53;2.42;;;2.20;99.90;;;;;;5037854;28;20025;-76
2022/12/03 12:35:12;;;;;;;2.60;2.50;;;2.20;99.90;;;;;;5032057;28;20025;-77
2022/12/03 12:37:53;;;;;;;1.90;1.90;;;2.20;99.90;;;;;;5020577;28;20065;-77
2022/12/03 12:40:22;;;;;;;1.80;1.80;;;2.20;99.90;;;;;;5021780;28;20033;-77
2022/12/03 12:42:51;;;;;;;2.45;2.35;;;2.30;99.90;;;;;;5018419;28;20432;-77
2022/12/03 12:45:22;;;;;;;2.30;2.20;;;2.20;99.90;;;;;;5012596;28;20022;-76
2022/12/03 12:48:00;;;;;;;2.15;2.13;;;2.20;99.90;;;;;;5013178;28;20018;-77
2022/12/03 12:50:26;;;;;;;2.67;2.58;;;2.30;99.90;;;;;;5024665;28;20014;-77
2022/12/03 12:52:57;;;;;;;2.88;2.78;;;2.30;99.90;;;;;;5027943;28;20072;-76
2022/12/03 12:55:23;;;;;;;2.33;2.22;;;2.30;99.90;;;;;;5028446;28;20028;-77
2022/12/03 12:57:49;;;;;;;1.92;1.92;;;2.20;99.90;;;;;;5041904;28;20388;-76
2022/12/03 13:00:21;;;;;;;1.70;1.70;;;2.30;99.90;;;;;;5043445;28;20018;-76
2022/12/03 13:03:01;;;;;;;1.85;1.85;;;2.30;99.90;;;;;;5043079;28;20048;-76
2022/12/03 13:05:39;;;;;;;2.35;2.25;;;2.20;99.90;;;;;;5043523;28;20018;-77
2022/12/03 13:08:17;;;;;;;1.90;1.90;;;2.10;99.90;;;;;;5042483;28;20120;-77
2022/12/03 13:10:43;;;;;;;2.30;2.20;;;2.10;99.90;;;;;;5043791;28;20036;-77
2022/12/03 13:13:25;;;;;;;2.00;2.00;;;2.20;99.90;;;;;;5043741;28;20033;-77
2022/12/03 13:15:52;;;;;;;1.83;1.83;;;2.10;99.90;;;;;;5038842;28;20025;-77
2022/12/03 13:18:23;;;;;;;1.98;1.98;;;2.20;99.90;;;;;;5035276;28;20442;-77
2022/12/03 13:20:48;;;;;;;1.80;1.80;;;2.20;99.90;;;;;;5037599;28;20013;-77
2022/12/03 13:23:27;;;;;;;1.60;1.60;;;2.10;99.90;;;;;;5037077;28;20080;-77
2022/12/03 13:25:53;;;;;;;1.95;1.95;;;2.00;99.90;;;;;;5036379;28;20380;-77
2022/12/03 13:28:18;;;;;;;1.60;1.60;;;1.90;99.90;;;;;;5036625;28;20025;-77